sensor_id;sensor_type;location;lat;lon;timestamp;pressure;altitude;pressure_sealevel;temperature;humidity
61710;BME280;73500;51.494;5.386;2024-03-06T00:01:57;101655.47;;;18.64;42.78
61710;BME280;73500;51.494;5.386;2024-03-06T00:04:22;101659.16;;;18.62;42.28
61710;BME280;73500;51.494;5.386;2024-03-06T00:06:47;101671.94;;;18.68;42.44
61710;BME280;73500;51.494;5.386;2024-03-06T00:09:13;101669.50;;;18.65;42.61
61710;BME280;73500;51.494;5.386;2024-03-06T00:11:38;101643.66;;;18.44;42.60
61710;BME280;73500;51.494;5.386;2024-03-06T00:14:04;101655.47;;;18.52;42.32
61710;BME280;73500;51.494;5.386;2024-03-06T00:16:31;101655.34;;;18.53;42.04
61710;BME280;73500;51.494;5.386;2024-03-06T00:18:56;101656.63;;;18.47;42.21
61710;BME280;73500;51.494;5.386;2024-03-06T00:21:21;101669.94;;;18.59;42.12
61710;BME280;73500;51.494;5.386;2024-03-06T00:23:47;101678.06;;;18.56;42.15
61710;BME280;73500;51.494;5.386;2024-03-06T00:26:12;101679.75;;;18.57;42.11
61710;BME280;73500;51.494;5.386;2024-03-06T00:28:38;101663.94;;;18.44;42.00
61710;BME280;73500;51.494;5.386;2024-03-06T00:31:05;101673.31;;;18.48;41.98
61710;BME280;73500;51.494;5.386;2024-03-06T00:33:30;101664.97;;;18.41;41.96
61710;BME280;73500;51.494;5.386;2024-03-06T00:35:55;101683.56;;;18.53;41.71
61710;BME280;73500;51.494;5.386;2024-03-06T00:38:21;101684.63;;;18.50;42.00
61710;BME280;73500;51.494;5.386;2024-03-06T00:40:46;101668.44;;;18.42;41.77
61710;BME280;73500;51.494;5.386;2024-03-06T00:43:12;101680.72;;;18.43;41.68
61710;BME280;73500;51.494;5.386;2024-03-06T00:45:37;101688.31;;;18.47;41.79
61710;BME280;73500;51.494;5.386;2024-03-06T00:48:02;101673.53;;;18.32;41.60
61710;BME280;73500;51.494;5.386;2024-03-06T00:50:28;101692.09;;;18.43;41.80
61710;BME280;73500;51.494;5.386;2024-03-06T00:52:54;101689.88;;;18.37;41.68
61710;BME280;73500;51.494;5.386;2024-03-06T00:55:19;101680.50;;;18.33;41.63
61710;BME280;73500;51.494;5.386;2024-03-06T00:57:44;101690.13;;;18.34;41.50
61710;BME280;73500;51.494;5.386;2024-03-06T01:00:10;101705.41;;;18.42;41.69
61710;BME280;73500;51.494;5.386;2024-03-06T01:02:39;101702.66;;;18.43;41.63
61710;BME280;73500;51.494;5.386;2024-03-06T01:05:05;101682.63;;;18.28;41.52
61710;BME280;73500;51.494;5.386;2024-03-06T01:07:32;101709.84;;;18.41;41.43
61710;BME280;73500;51.494;5.386;2024-03-06T01:09:58;101670.91;;;18.19;41.73
61710;BME280;73500;51.494;5.386;2024-03-06T01:12:24;101693.19;;;18.28;41.44
61710;BME280;73500;51.494;5.386;2024-03-06T01:14:49;101686.63;;;18.21;41.52
61710;BME280;73500;51.494;5.386;2024-03-06T01:17:14;101714.59;;;18.36;41.42
61710;BME280;73500;51.494;5.386;2024-03-06T01:19:40;101694.84;;;18.16;41.19
61710;BME280;73500;51.494;5.386;2024-03-06T01:22:05;101710.78;;;18.27;41.13
61710;BME280;73500;51.494;5.386;2024-03-06T01:24:31;101714.81;;;18.33;41.28
61710;BME280;73500;51.494;5.386;2024-03-06T01:26:56;101709.63;;;18.31;41.26
61710;BME280;73500;51.494;5.386;2024-03-06T01:29:21;101705.50;;;18.27;41.14
61710;BME280;73500;51.494;5.386;2024-03-06T01:31:46;101704.56;;;18.28;41.27
61710;BME280;73500;51.494;5.386;2024-03-06T01:34:12;101714.19;;;18.29;41.36
61710;BME280;73500;51.494;5.386;2024-03-06T01:36:37;101723.97;;;18.27;41.14
61710;BME280;73500;51.494;5.386;2024-03-06T01:39:03;101710.38;;;18.21;41.19
61710;BME280;73500;51.494;5.386;2024-03-06T01:41:28;101719.47;;;18.17;41.12
61710;BME280;73500;51.494;5.386;2024-03-06T01:43:53;101724.84;;;18.28;41.23
61710;BME280;73500;51.494;5.386;2024-03-06T01:46:19;101717.66;;;18.17;41.14
61710;BME280;73500;51.494;5.386;2024-03-06T01:48:44;101733.59;;;18.28;41.14
61710;BME280;73500;51.494;5.386;2024-03-06T01:51:10;101721.75;;;18.21;41.05
61710;BME280;73500;51.494;5.386;2024-03-06T01:53:37;101732.19;;;18.23;41.08
61710;BME280;73500;51.494;5.386;2024-03-06T01:56:04;101723.88;;;18.16;41.36
61710;BME280;73500;51.494;5.386;2024-03-06T01:58:29;101721.22;;;18.16;41.19
61710;BME280;73500;51.494;5.386;2024-03-06T02:00:56;101728.41;;;18.14;41.31
61710;BME280;73500;51.494;5.386;2024-03-06T02:03:22;101736.84;;;18.19;41.00
61710;BME280;73500;51.494;5.386;2024-03-06T02:05:49;101705.59;;;18.00;40.84
61710;BME280;73500;51.494;5.386;2024-03-06T02:08:15;101744.56;;;18.22;40.85
61710;BME280;73500;51.494;5.386;2024-03-06T02:10:41;101750.88;;;18.20;40.94
61710;BME280;73500;51.494;5.386;2024-03-06T02:13:06;101742.75;;;18.10;40.92
61710;BME280;73500;51.494;5.386;2024-03-06T02:15:32;101759.03;;;18.17;40.86
61710;BME280;73500;51.494;5.386;2024-03-06T02:17:58;101750.44;;;18.13;40.87
61710;BME280;73500;51.494;5.386;2024-03-06T02:20:24;101740.59;;;18.02;40.96
61710;BME280;73500;51.494;5.386;2024-03-06T02:22:50;101743.91;;;18.06;40.74
61710;BME280;73500;51.494;5.386;2024-03-06T02:25:16;101755.72;;;18.13;40.77
61710;BME280;73500;51.494;5.386;2024-03-06T02:27:42;101762.81;;;18.12;40.95
61710;BME280;73500;51.494;5.386;2024-03-06T02:30:08;101766.38;;;18.11;40.71
61710;BME280;73500;51.494;5.386;2024-03-06T02:32:34;101768.28;;;18.09;40.90
61710;BME280;73500;51.494;5.386;2024-03-06T02:35:02;101773.34;;;18.12;40.91
61710;BME280;73500;51.494;5.386;2024-03-06T02:37:28;101751.94;;;18.04;40.87
61710;BME280;73500;51.494;5.386;2024-03-06T02:39:53;101755.50;;;18.03;40.99
61710;BME280;73500;51.494;5.386;2024-03-06T02:42:19;101770.00;;;18.10;40.79
61710;BME280;73500;51.494;5.386;2024-03-06T02:44:44;101773.34;;;18.12;40.83
61710;BME280;73500;51.494;5.386;2024-03-06T02:47:09;101762.28;;;18.07;40.77
61710;BME280;73500;51.494;5.386;2024-03-06T02:49:35;101766.59;;;18.08;40.77
61710;BME280;73500;51.494;5.386;2024-03-06T02:52:00;101764.72;;;18.10;40.69
61710;BME280;73500;51.494;5.386;2024-03-06T02:54:27;101746.31;;;17.96;40.57
61710;BME280;73500;51.494;5.386;2024-03-06T02:56:52;101755.50;;;18.03;40.67
61710;BME280;73500;51.494;5.386;2024-03-06T02:59:17;101763.84;;;18.10;40.33
61710;BME280;73500;51.494;5.386;2024-03-06T03:01:44;101752.13;;;18.01;40.58
61710;BME280;73500;51.494;5.386;2024-03-06T03:04:10;101763.31;;;18.05;40.46
61710;BME280;73500;51.494;5.386;2024-03-06T03:06:35;101766.97;;;18.02;40.39
61710;BME280;73500;51.494;5.386;2024-03-06T03:09:00;101765.94;;;18.05;40.42
61710;BME280;73500;51.494;5.386;2024-03-06T03:11:26;101774.69;;;18.05;40.22
61710;BME280;73500;51.494;5.386;2024-03-06T03:13:52;101776.41;;;18.06;40.38
61710;BME280;73500;51.494;5.386;2024-03-06T03:16:18;101754.53;;;17.91;40.33
61710;BME280;73500;51.494;5.386;2024-03-06T03:18:44;101759.81;;;17.91;40.30
61710;BME280;73500;51.494;5.386;2024-03-06T03:21:10;101782.72;;;18.04;40.16
61710;BME280;73500;51.494;5.386;2024-03-06T03:23:36;101777.53;;;18.02;40.26
61710;BME280;73500;51.494;5.386;2024-03-06T03:26:01;101773.97;;;18.03;40.33
61710;BME280;73500;51.494;5.386;2024-03-06T03:28:29;101768.88;;;18.00;40.12
61710;BME280;73500;51.494;5.386;2024-03-06T03:30:54;101743.72;;;17.82;40.15
61710;BME280;73500;51.494;5.386;2024-03-06T03:33:19;101753.94;;;17.86;40.04
61710;BME280;73500;51.494;5.386;2024-03-06T03:35:45;101770.06;;;17.96;39.93
61710;BME280;73500;51.494;5.386;2024-03-06T03:38:10;101779.44;;;18.00;40.18
61710;BME280;73500;51.494;5.386;2024-03-06T03:40:35;101768.56;;;17.92;40.06
61710;BME280;73500;51.494;5.386;2024-03-06T03:43:00;101776.38;;;17.93;40.07
61710;BME280;73500;51.494;5.386;2024-03-06T03:45:31;101772.22;;;17.89;39.84
61710;BME280;73500;51.494;5.386;2024-03-06T03:47:56;101777.19;;;17.94;40.02
61710;BME280;73500;51.494;5.386;2024-03-06T03:50:21;101787.66;;;17.95;39.88
61710;BME280;73500;51.494;5.386;2024-03-06T03:52:47;101765.34;;;17.87;39.88
61710;BME280;73500;51.494;5.386;2024-03-06T03:55:12;101779.00;;;17.93;39.95
61710;BME280;73500;51.494;5.386;2024-03-06T03:57:37;101772.63;;;17.83;39.64
61710;BME280;73500;51.494;5.386;2024-03-06T04:00:03;101770.28;;;17.79;39.92
61710;BME280;73500;51.494;5.386;2024-03-06T04:02:36;101795.88;;;17.91;39.82
61710;BME280;73500;51.494;5.386;2024-03-06T04:05:01;101781.28;;;17.85;39.91
61710;BME280;73500;51.494;5.386;2024-03-06T04:07:26;101774.59;;;17.80;39.56
61710;BME280;73500;51.494;5.386;2024-03-06T04:09:51;101791.47;;;17.91;39.92
61710;BME280;73500;51.494;5.386;2024-03-06T04:12:17;101795.88;;;17.91;39.72
61710;BME280;73500;51.494;5.386;2024-03-06T04:14:42;101795.88;;;17.91;39.81
61710;BME280;73500;51.494;5.386;2024-03-06T04:17:07;101798.69;;;17.88;39.80
61710;BME280;73500;51.494;5.386;2024-03-06T04:19:33;101783.03;;;17.85;39.60
61710;BME280;73500;51.494;5.386;2024-03-06T04:21:59;101794.34;;;17.87;39.87
61710;BME280;73500;51.494;5.386;2024-03-06T04:24:24;101771.31;;;17.76;39.73
61710;BME280;73500;51.494;5.386;2024-03-06T04:26:49;101787.69;;;17.81;39.77
61710;BME280;73500;51.494;5.386;2024-03-06T04:29:15;101797.00;;;17.87;39.85
61710;BME280;73500;51.494;5.386;2024-03-06T04:31:41;101799.00;;;17.83;39.69
61710;BME280;73500;51.494;5.386;2024-03-06T04:34:06;101776.97;;;17.70;39.78
61710;BME280;73500;51.494;5.386;2024-03-06T04:36:31;101803.41;;;17.83;39.80
61710;BME280;73500;51.494;5.386;2024-03-06T04:38:57;101799.59;;;17.74;39.52
61710;BME280;73500;51.494;5.386;2024-03-06T04:41:22;101803.25;;;17.71;39.52
61710;BME280;73500;51.494;5.386;2024-03-06T04:43:48;101805.06;;;17.71;39.62
61710;BME280;73500;51.494;5.386;2024-03-06T04:46:15;101808.53;;;17.71;39.53
61710;BME280;73500;51.494;5.386;2024-03-06T04:48:41;101829.03;;;17.81;39.53
61710;BME280;73500;51.494;5.386;2024-03-06T04:51:06;101831.66;;;17.81;39.68
61710;BME280;73500;51.494;5.386;2024-03-06T04:53:31;101808.28;;;17.62;39.66
61710;BME280;73500;51.494;5.386;2024-03-06T04:55:57;101837.88;;;17.80;39.43
61710;BME280;73500;51.494;5.386;2024-03-06T04:58:22;101827.91;;;17.70;39.50
61710;BME280;73500;51.494;5.386;2024-03-06T05:00:48;101840.81;;;17.75;39.48
61710;BME280;73500;51.494;5.386;2024-03-06T05:03:13;101842.59;;;17.74;39.41
61710;BME280;73500;51.494;5.386;2024-03-06T05:05:38;101852.13;;;17.77;39.29
61710;BME280;73500;51.494;5.386;2024-03-06T05:08:05;101852.22;;;17.75;39.31
61710;BME280;73500;51.494;5.386;2024-03-06T05:10:32;101848.06;;;17.71;39.34
61710;BME280;73500;51.494;5.386;2024-03-06T05:12:57;101838.88;;;17.64;39.42
61710;BME280;73500;51.494;5.386;2024-03-06T05:15:22;101844.06;;;17.66;39.19
61710;BME280;73500;51.494;5.386;2024-03-06T05:17:48;101866.34;;;17.74;39.43
61710;BME280;73500;51.494;5.386;2024-03-06T05:20:13;101870.69;;;17.75;39.06
61710;BME280;73500;51.494;5.386;2024-03-06T05:22:39;101856.38;;;17.65;39.42
61710;BME280;73500;51.494;5.386;2024-03-06T05:25:04;101856.47;;;17.64;39.22
61710;BME280;73500;51.494;5.386;2024-03-06T05:27:30;101879.50;;;17.74;39.51
61710;BME280;73500;51.494;5.386;2024-03-06T05:29:57;101854.00;;;17.61;39.39
61710;BME280;73500;51.494;5.386;2024-03-06T05:32:22;101872.91;;;17.67;39.40
61710;BME280;73500;51.494;5.386;2024-03-06T05:34:47;101858.34;;;17.62;39.23
61710;BME280;73500;51.494;5.386;2024-03-06T05:37:12;101885.91;;;17.70;39.26
61710;BME280;73500;51.494;5.386;2024-03-06T05:39:38;101880.97;;;17.66;39.14
61710;BME280;73500;51.494;5.386;2024-03-06T05:42:04;101881.16;;;17.63;39.11
61710;BME280;73500;51.494;5.386;2024-03-06T05:44:33;101893.19;;;17.67;38.93
61710;BME280;73500;51.494;5.386;2024-03-06T05:46:59;101882.06;;;17.62;39.21
61710;BME280;73500;51.494;5.386;2024-03-06T05:49:26;101905.31;;;17.69;38.94
61710;BME280;73500;51.494;5.386;2024-03-06T05:51:52;101893.75;;;17.57;38.95
61710;BME280;73500;51.494;5.386;2024-03-06T05:54:19;101900.53;;;17.62;39.15
61710;BME280;73500;51.494;5.386;2024-03-06T05:56:44;101890.75;;;17.49;39.49
61710;BME280;73500;51.494;5.386;2024-03-06T05:59:09;101910.88;;;17.65;39.43
61710;BME280;73500;51.494;5.386;2024-03-06T06:01:35;101917.19;;;17.62;39.77
61710;BME280;73500;51.494;5.386;2024-03-06T06:04:01;101908.53;;;17.60;39.75
61710;BME280;73500;51.494;5.386;2024-03-06T06:06:26;101912.59;;;17.66;40.09
61710;BME280;73500;51.494;5.386;2024-03-06T06:08:52;101936.50;;;17.77;40.19
61710;BME280;73500;51.494;5.386;2024-03-06T06:11:17;101918.31;;;17.72;40.26
61710;BME280;73500;51.494;5.386;2024-03-06T06:13:43;101938.75;;;17.83;40.24
61710;BME280;73500;51.494;5.386;2024-03-06T06:16:08;101934.91;;;17.89;40.32
61710;BME280;73500;51.494;5.386;2024-03-06T06:18:33;101920.38;;;17.82;40.23
61710;BME280;73500;51.494;5.386;2024-03-06T06:20:59;101942.41;;;17.95;40.08
61710;BME280;73500;51.494;5.386;2024-03-06T06:23:25;101932.16;;;17.90;40.25
61710;BME280;73500;51.494;5.386;2024-03-06T06:25:50;101944.88;;;17.98;40.20
61710;BME280;73500;51.494;5.386;2024-03-06T06:28:16;101939.50;;;18.00;40.32
61710;BME280;73500;51.494;5.386;2024-03-06T06:30:41;101942.03;;;18.01;40.17
61710;BME280;73500;51.494;5.386;2024-03-06T06:33:07;101949.56;;;18.07;40.09
61710;BME280;73500;51.494;5.386;2024-03-06T06:35:33;101926.69;;;17.93;40.12
61710;BME280;73500;51.494;5.386;2024-03-06T06:37:59;101960.13;;;18.07;39.77
61710;BME280;73500;51.494;5.386;2024-03-06T06:40:25;101958.13;;;18.11;39.98
61710;BME280;73500;51.494;5.386;2024-03-06T06:42:50;101960.75;;;18.11;40.10
61710;BME280;73500;51.494;5.386;2024-03-06T06:45:16;101961.78;;;18.08;39.96
61710;BME280;73500;51.494;5.386;2024-03-06T06:47:42;101953.13;;;18.06;39.77
61710;BME280;73500;51.494;5.386;2024-03-06T06:50:07;101939.59;;;17.98;39.79
61710;BME280;73500;51.494;5.386;2024-03-06T06:52:37;101954.16;;;18.04;39.93
61710;BME280;73500;51.494;5.386;2024-03-06T06:55:02;101974.31;;;18.19;39.66
61710;BME280;73500;51.494;5.386;2024-03-06T06:57:29;101971.88;;;18.16;39.76
61710;BME280;73500;51.494;5.386;2024-03-06T06:59:54;101979.50;;;18.21;39.82
61710;BME280;73500;51.494;5.386;2024-03-06T07:02:19;101977.34;;;18.13;39.74
61710;BME280;73500;51.494;5.386;2024-03-06T07:04:44;101970.28;;;18.13;39.86
61710;BME280;73500;51.494;5.386;2024-03-06T07:07:10;101991.66;;;18.23;39.81
61710;BME280;73500;51.494;5.386;2024-03-06T07:09:35;101989.94;;;18.22;40.06
61710;BME280;73500;51.494;5.386;2024-03-06T07:12:01;101993.84;;;18.17;40.12
61710;BME280;73500;51.494;5.386;2024-03-06T07:14:26;101999.56;;;18.23;40.05
61710;BME280;73500;51.494;5.386;2024-03-06T07:16:51;102006.81;;;18.20;40.12
61710;BME280;73500;51.494;5.386;2024-03-06T07:19:16;101997.97;;;18.21;40.38
61710;BME280;73500;51.494;5.386;2024-03-06T07:21:42;101991.19;;;18.17;40.41
61710;BME280;73500;51.494;5.386;2024-03-06T07:24:07;101991.41;;;18.13;40.33
61710;BME280;73500;51.494;5.386;2024-03-06T07:26:33;101995.59;;;18.16;40.64
61710;BME280;73500;51.494;5.386;2024-03-06T07:28:58;102019.53;;;18.27;40.55
61710;BME280;73500;51.494;5.386;2024-03-06T07:31:24;102005.22;;;18.17;40.83
61710;BME280;73500;51.494;5.386;2024-03-06T07:33:50;102002.69;;;18.16;40.85
61710;BME280;73500;51.494;5.386;2024-03-06T07:36:15;102027.34;;;18.29;40.98
61710;BME280;73500;51.494;5.386;2024-03-06T07:38:42;102022.53;;;18.21;41.00
61710;BME280;73500;51.494;5.386;2024-03-06T07:41:07;102018.13;;;18.22;40.76
61710;BME280;73500;51.494;5.386;2024-03-06T07:43:32;102034.53;;;18.27;41.23
61710;BME280;73500;51.494;5.386;2024-03-06T07:45:57;102003.16;;;18.08;41.24
61710;BME280;73500;51.494;5.386;2024-03-06T07:48:24;102026.78;;;18.24;41.40
61710;BME280;73500;51.494;5.386;2024-03-06T07:50:49;102039.69;;;18.28;41.43
61710;BME280;73500;51.494;5.386;2024-03-06T07:53:14;102019.34;;;18.16;41.44
61710;BME280;73500;51.494;5.386;2024-03-06T07:55:41;102029.34;;;18.25;41.63
61710;BME280;73500;51.494;5.386;2024-03-06T07:58:06;102024.63;;;18.16;41.63
61710;BME280;73500;51.494;5.386;2024-03-06T08:00:33;102028.88;;;18.19;41.73
61710;BME280;73500;51.494;5.386;2024-03-06T08:02:58;102044.44;;;18.23;41.78
61710;BME280;73500;51.494;5.386;2024-03-06T08:05:25;102046.00;;;18.26;41.72
61710;BME280;73500;51.494;5.386;2024-03-06T08:07:51;102032.34;;;18.19;41.95
61710;BME280;73500;51.494;5.386;2024-03-06T08:10:16;102062.41;;;18.31;41.95
61710;BME280;73500;51.494;5.386;2024-03-06T08:12:44;102048.94;;;18.21;41.90
61710;BME280;73500;51.494;5.386;2024-03-06T08:15:12;102044.72;;;18.19;42.18
61710;BME280;73500;51.494;5.386;2024-03-06T08:17:42;102053.38;;;18.21;42.29
61710;BME280;73500;51.494;5.386;2024-03-06T08:20:09;102053.19;;;18.24;42.75
61710;BME280;73500;51.494;5.386;2024-03-06T08:22:36;102062.63;;;18.28;42.49
61710;BME280;73500;51.494;5.386;2024-03-06T08:25:05;102068.72;;;18.28;42.89
61710;BME280;73500;51.494;5.386;2024-03-06T08:27:32;102061.28;;;18.21;43.10
61710;BME280;73500;51.494;5.386;2024-03-06T08:29:57;102079.75;;;18.35;43.14
61710;BME280;73500;51.494;5.386;2024-03-06T08:32:22;102069.56;;;18.29;43.36
61710;BME280;73500;51.494;5.386;2024-03-06T08:34:48;102071.38;;;18.28;43.90
61710;BME280;73500;51.494;5.386;2024-03-06T08:37:13;102070.53;;;18.28;43.66
61710;BME280;73500;51.494;5.386;2024-03-06T08:39:39;102086.53;;;18.39;44.12
61710;BME280;73500;51.494;5.386;2024-03-06T08:42:04;102078.06;;;18.34;43.75
61710;BME280;73500;51.494;5.386;2024-03-06T08:44:30;102069.56;;;18.29;44.04
61710;BME280;73500;51.494;5.386;2024-03-06T08:46:55;102063.00;;;18.22;44.24
61710;BME280;73500;51.494;5.386;2024-03-06T08:49:20;102094.34;;;18.41;44.00
61710;BME280;73500;51.494;5.386;2024-03-06T08:51:46;102097.00;;;18.41;44.26
61710;BME280;73500;51.494;5.386;2024-03-06T08:54:11;102101.41;;;18.40;44.46
61710;BME280;73500;51.494;5.386;2024-03-06T08:56:36;102096.41;;;18.36;44.35
61710;BME280;73500;51.494;5.386;2024-03-06T08:59:02;102086.25;;;18.29;44.44
61710;BME280;73500;51.494;5.386;2024-03-06T09:01:27;102110.00;;;18.44;44.47
61710;BME280;73500;51.494;5.386;2024-03-06T09:03:53;102093.13;;;18.32;44.31
61710;BME280;73500;51.494;5.386;2024-03-06T09:06:18;102119.50;;;18.46;44.39
61710;BME280;73500;51.494;5.386;2024-03-06T09:08:43;102097.28;;;18.36;44.71
61710;BME280;73500;51.494;5.386;2024-03-06T09:11:08;102121.41;;;18.44;44.46
61710;BME280;73500;51.494;5.386;2024-03-06T09:13:34;102119.69;;;18.43;44.54
61710;BME280;73500;51.494;5.386;2024-03-06T09:15:59;102109.50;;;18.37;44.28
61710;BME280;73500;51.494;5.386;2024-03-06T09:18:24;102124.78;;;18.46;44.61
61710;BME280;73500;51.494;5.386;2024-03-06T09:20:50;102127.44;;;18.46;44.03
61710;BME280;73500;51.494;5.386;2024-03-06T09:23:15;102132.88;;;18.43;44.26
61710;BME280;73500;51.494;5.386;2024-03-06T09:25:41;102130.25;;;18.43;44.11
61710;BME280;73500;51.494;5.386;2024-03-06T09:28:06;102133.84;;;18.42;44.01
61710;BME280;73500;51.494;5.386;2024-03-06T09:30:34;102109.84;;;18.33;44.02
61710;BME280;73500;51.494;5.386;2024-03-06T09:32:59;102130.06;;;18.46;44.04
61710;BME280;73500;51.494;5.386;2024-03-06T09:35:24;102132.25;;;18.40;44.25
61710;BME280;73500;51.494;5.386;2024-03-06T09:37:49;102134.78;;;18.41;44.04
61710;BME280;73500;51.494;5.386;2024-03-06T09:40:22;102146.47;;;18.52;44.03
61710;BME280;73500;51.494;5.386;2024-03-06T09:42:49;102146.47;;;18.52;44.06
61710;BME280;73500;51.494;5.386;2024-03-06T09:45:15;102128.75;;;18.39;44.06
61710;BME280;73500;51.494;5.386;2024-03-06T09:47:42;102136.50;;;18.42;44.10
61710;BME280;73500;51.494;5.386;2024-03-06T09:50:09;102132.16;;;18.41;44.03
61710;BME280;73500;51.494;5.386;2024-03-06T09:52:36;102151.88;;;18.50;44.09
61710;BME280;73500;51.494;5.386;2024-03-06T09:55:01;102145.06;;;18.46;44.21
61710;BME280;73500;51.494;5.386;2024-03-06T09:57:27;102157.69;;;18.55;44.22
61710;BME280;73500;51.494;5.386;2024-03-06T09:59:53;102141.69;;;18.44;44.09
61710;BME280;73500;51.494;5.386;2024-03-06T10:02:36;102164.66;;;18.56;44.05
61710;BME280;73500;51.494;5.386;2024-03-06T10:05:02;102158.81;;;18.51;43.92
61710;BME280;73500;51.494;5.386;2024-03-06T10:07:28;102170.72;;;18.58;44.12
61710;BME280;73500;51.494;5.386;2024-03-06T10:09:53;102155.44;;;18.49;43.54
61710;BME280;73500;51.494;5.386;2024-03-06T10:12:19;102155.34;;;18.51;43.81
61710;BME280;73500;51.494;5.386;2024-03-06T10:14:53;102158.81;;;18.51;43.78
61710;BME280;73500;51.494;5.386;2024-03-06T10:17:22;102180.22;;;18.61;44.18
61710;BME280;73500;51.494;5.386;2024-03-06T10:19:48;102182.00;;;18.60;44.32
61710;BME280;73500;51.494;5.386;2024-03-06T10:22:16;102156.28;;;18.49;44.38
61710;BME280;73500;51.494;5.386;2024-03-06T10:24:42;102159.56;;;18.53;44.42
61710;BME280;73500;51.494;5.386;2024-03-06T10:27:07;102160.63;;;18.51;44.38
61710;BME280;73500;51.494;5.386;2024-03-06T10:29:34;102170.03;;;18.55;44.53
61710;BME280;73500;51.494;5.386;2024-03-06T10:32:00;102177.75;;;18.58;44.23
61710;BME280;73500;51.494;5.386;2024-03-06T10:34:27;102180.97;;;18.63;44.47
61710;BME280;73500;51.494;5.386;2024-03-06T10:36:57;102178.16;;;18.66;44.85
61710;BME280;73500;51.494;5.386;2024-03-06T10:39:23;102180.03;;;18.64;44.67
61710;BME280;73500;51.494;5.386;2024-03-06T10:41:53;102161.91;;;18.58;44.90
61710;BME280;73500;51.494;5.386;2024-03-06T10:44:26;102151.34;;;18.58;44.99
61710;BME280;73500;51.494;5.386;2024-03-06T10:46:59;102159.00;;;18.62;44.89
61710;BME280;73500;51.494;5.386;2024-03-06T10:49:29;102147.13;;;18.55;44.87
61710;BME280;73500;51.494;5.386;2024-03-06T10:52:04;102169.56;;;18.62;45.03
61710;BME280;73500;51.494;5.386;2024-03-06T10:54:34;102165.03;;;18.64;45.27
61710;BME280;73500;51.494;5.386;2024-03-06T10:57:06;102172.66;;;18.69;45.01
61710;BME280;73500;51.494;5.386;2024-03-06T10:59:34;102177.09;;;18.68;44.87
61710;BME280;73500;51.494;5.386;2024-03-06T11:02:00;102184.19;;;18.68;44.91
61710;BME280;73500;51.494;5.386;2024-03-06T11:04:31;102162.69;;;18.60;44.81
61710;BME280;73500;51.494;5.386;2024-03-06T11:07:03;102170.50;;;18.61;44.90
61710;BME280;73500;51.494;5.386;2024-03-06T11:09:37;102177.38;;;18.64;44.89
61710;BME280;73500;51.494;5.386;2024-03-06T11:12:06;102157.69;;;18.55;44.72
61710;BME280;73500;51.494;5.386;2024-03-06T11:14:33;102161.56;;;18.49;44.92
61710;BME280;73500;51.494;5.386;2024-03-06T11:17:03;102156.09;;;18.53;44.79
61710;BME280;73500;51.494;5.386;2024-03-06T11:19:30;102184.19;;;18.68;44.99
61710;BME280;73500;51.494;5.386;2024-03-06T11:21:56;102166.44;;;18.56;45.02
61710;BME280;73500;51.494;5.386;2024-03-06T11:24:23;102177.66;;;18.59;44.82
61710;BME280;73500;51.494;5.386;2024-03-06T11:26:56;102178.25;;;18.64;44.75
61710;BME280;73500;51.494;5.386;2024-03-06T11:29:23;102187.00;;;18.65;44.65
61710;BME280;73500;51.494;5.386;2024-03-06T11:31:59;102172.56;;;18.56;44.58
61710;BME280;73500;51.494;5.386;2024-03-06T11:34:26;102176.00;;;18.58;44.52
61710;BME280;73500;51.494;5.386;2024-03-06T11:36:56;102163.81;;;18.56;44.40
61710;BME280;73500;51.494;5.386;2024-03-06T11:39:22;102185.84;;;18.69;44.54
61710;BME280;73500;51.494;5.386;2024-03-06T11:41:49;102189.28;;;18.71;44.44
61710;BME280;73500;51.494;5.386;2024-03-06T11:44:15;102176.91;;;18.57;44.41
61710;BME280;73500;51.494;5.386;2024-03-06T11:46:45;102197.19;;;18.71;43.93
61710;BME280;73500;51.494;5.386;2024-03-06T11:49:19;102186.34;;;18.61;43.92
61710;BME280;73500;51.494;5.386;2024-03-06T11:51:50;102179.56;;;18.57;44.32
61710;BME280;73500;51.494;5.386;2024-03-06T11:54:16;102192.47;;;18.62;44.66
61710;BME280;73500;51.494;5.386;2024-03-06T11:56:47;102195.03;;;18.63;44.31
61710;BME280;73500;51.494;5.386;2024-03-06T11:59:12;102200.13;;;18.66;44.22
61710;BME280;73500;51.494;5.386;2024-03-06T12:01:38;102184.84;;;18.57;43.95
61710;BME280;73500;51.494;5.386;2024-03-06T12:04:03;102176.47;;;18.51;43.76
61710;BME280;73500;51.494;5.386;2024-03-06T12:06:32;102195.88;;;18.64;44.24
61710;BME280;73500;51.494;5.386;2024-03-06T12:08:58;102181.75;;;18.51;44.73
61710;BME280;73500;51.494;5.386;2024-03-06T12:11:24;102179.75;;;18.54;43.46
61710;BME280;73500;51.494;5.386;2024-03-06T12:13:51;102192.47;;;18.62;42.43
61710;BME280;73500;51.494;5.386;2024-03-06T12:16:16;102206.44;;;18.64;43.58
61710;BME280;73500;51.494;5.386;2024-03-06T12:18:42;102200.59;;;18.59;43.79
61710;BME280;73500;51.494;5.386;2024-03-06T12:21:07;102189.38;;;18.55;43.47
61710;BME280;73500;51.494;5.386;2024-03-06T12:23:33;102202.28;;;18.60;43.59
61710;BME280;73500;51.494;5.386;2024-03-06T12:26:06;102205.50;;;18.65;44.20
61710;BME280;73500;51.494;5.386;2024-03-06T12:28:33;102189.47;;;18.54;44.67
61710;BME280;73500;51.494;5.386;2024-03-06T12:31:04;102180.91;;;18.50;45.08
61710;BME280;73500;51.494;5.386;2024-03-06T12:33:31;102189.19;;;18.58;45.52
61710;BME280;73500;51.494;5.386;2024-03-06T12:36:07;102190.69;;;18.62;45.38
61710;BME280;73500;51.494;5.386;2024-03-06T12:38:35;102194.38;;;18.60;45.58
61710;BME280;73500;51.494;5.386;2024-03-06T12:41:01;102206.16;;;18.68;45.77
61710;BME280;73500;51.494;5.386;2024-03-06T12:43:26;102185.69;;;18.58;45.47
61710;BME280;73500;51.494;5.386;2024-03-06T12:45:53;102197.56;;;18.65;45.78